sensor_id;sensor_type;location;lat;lon;timestamp;pressure;altitude;pressure_sealevel;temperature;humidity
41062;BME280;26812;42.662;23.352;2023-08-07T00:00:35;94363.19;;;20.31;59.43
41062;BME280;26812;42.662;23.352;2023-08-07T00:03:00;94362.03;;;20.42;58.69
41062;BME280;26812;42.662;23.352;2023-08-07T00:05:26;94363.19;;;20.34;58.75
41062;BME280;26812;42.662;23.352;2023-08-07T00:07:51;94357.72;;;20.20;59.36
41062;BME280;26812;42.662;23.352;2023-08-07T00:10:17;94365.56;;;20.25;59.40
41062;BME280;26812;42.662;23.352;2023-08-07T00:12:42;94362.41;;;20.16;59.29
41062;BME280;26812;42.662;23.352;2023-08-07T00:15:15;94348.34;;;20.25;58.72
41062;BME280;26812;42.662;23.352;2023-08-07T00:17:40;94377.25;;;20.36;58.57
41062;BME280;26812;42.662;23.352;2023-08-07T00:20:06;94376.88;;;20.34;58.67
41062;BME280;26812;42.662;23.352;2023-08-07T00:22:32;94360.84;;;20.19;59.11
41062;BME280;26812;42.662;23.352;2023-08-07T00:24:58;94351.84;;;20.14;59.21
41062;BME280;26812;42.662;23.352;2023-08-07T00:27:23;94374.50;;;20.19;59.05
41062;BME280;26812;42.662;23.352;2023-08-07T00:29:48;94379.22;;;20.22;59.10
41062;BME280;26812;42.662;23.352;2023-08-07T00:32:14;94371.78;;;20.11;59.26
41062;BME280;26812;42.662;23.352;2023-08-07T00:34:39;94376.88;;;20.16;58.86
41062;BME280;26812;42.662;23.352;2023-08-07T00:37:04;94363.59;;;20.11;58.91
41062;BME280;26812;42.662;23.352;2023-08-07T00:39:30;94376.47;;;20.36;58.39
41062;BME280;26812;42.662;23.352;2023-08-07T00:41:55;94375.69;;;20.39;58.40
41062;BME280;26812;42.662;23.352;2023-08-07T00:44:21;94371.00;;;20.36;57.78
41062;BME280;26812;42.662;23.352;2023-08-07T00:46:48;94376.13;;;20.41;57.84
41062;BME280;26812;42.662;23.352;2023-08-07T00:49:14;94387.44;;;20.32;58.32
41062;BME280;26812;42.662;23.352;2023-08-07T00:51:39;94371.00;;;20.04;58.85
41062;BME280;26812;42.662;23.352;2023-08-07T00:54:05;94377.28;;;20.26;58.20
41062;BME280;26812;42.662;23.352;2023-08-07T00:56:32;94381.94;;;20.32;58.48
41062;BME280;26812;42.662;23.352;2023-08-07T00:58:59;94384.28;;;20.12;59.20
41062;BME280;26812;42.662;23.352;2023-08-07T01:01:25;94397.97;;;19.98;59.38
41062;BME280;26812;42.662;23.352;2023-08-07T01:03:51;94370.97;;;19.90;59.01
41062;BME280;26812;42.662;23.352;2023-08-07T01:06:16;94411.63;;;20.05;59.72
41062;BME280;26812;42.662;23.352;2023-08-07T01:08:42;94392.50;;;20.20;59.39
41062;BME280;26812;42.662;23.352;2023-08-07T01:16:37;94418.66;;;19.99;60.08
41062;BME280;26812;42.662;23.352;2023-08-07T01:19:08;94399.88;;;19.73;60.49
41062;BME280;26812;42.662;23.352;2023-08-07T01:21:38;94420.22;;;20.11;59.44
41062;BME280;26812;42.662;23.352;2023-08-07T01:24:04;94434.28;;;20.02;59.93
41062;BME280;26812;42.662;23.352;2023-08-07T01:26:29;94429.16;;;19.83;60.57
41062;BME280;26812;42.662;23.352;2023-08-07T01:29:06;94425.31;;;20.12;59.84
41062;BME280;26812;42.662;23.352;2023-08-07T01:31:38;94418.19;;;19.69;61.07
41062;BME280;26812;42.662;23.352;2023-08-07T01:34:06;94424.44;;;19.66;61.70
41062;BME280;26812;42.662;23.352;2023-08-07T01:36:34;94415.09;;;19.84;61.05
41062;BME280;26812;42.662;23.352;2023-08-07T01:39:01;94415.47;;;19.62;61.77
41062;BME280;26812;42.662;23.352;2023-08-07T01:41:29;94408.31;;;19.39;62.55
41062;BME280;26812;42.662;23.352;2023-08-07T01:43:54;94405.22;;;19.48;62.80
41062;BME280;26812;42.662;23.352;2023-08-07T01:46:20;94393.94;;;19.57;62.45
41062;BME280;26812;42.662;23.352;2023-08-07T01:48:46;94401.75;;;19.54;62.31
41062;BME280;26812;42.662;23.352;2023-08-07T01:51:11;94414.63;;;19.54;62.45
41062;BME280;26812;42.662;23.352;2023-08-07T01:53:36;94396.59;;;19.32;62.83
41062;BME280;26812;42.662;23.352;2023-08-07T01:56:02;94415.38;;;19.51;62.62
41062;BME280;26812;42.662;23.352;2023-08-07T01:58:28;94425.13;;;19.45;63.19
41062;BME280;26812;42.662;23.352;2023-08-07T02:00:53;94427.97;;;19.80;62.09
41062;BME280;26812;42.662;23.352;2023-08-07T02:03:19;94412.63;;;19.40;62.47
41062;BME280;26812;42.662;23.352;2023-08-07T02:05:45;94441.50;;;19.41;63.29
41062;BME280;26812;42.662;23.352;2023-08-07T02:08:11;94416.81;;;19.20;63.28
41062;BME280;26812;42.662;23.352;2023-08-07T02:10:37;94434.47;;;19.40;63.41
41062;BME280;26812;42.662;23.352;2023-08-07T02:13:02;94430.53;;;19.31;63.62
41062;BME280;26812;42.662;23.352;2023-08-07T02:15:27;94438.75;;;19.41;63.41
41062;BME280;26812;42.662;23.352;2023-08-07T02:17:53;94426.28;;;19.40;62.82
41062;BME280;26812;42.662;23.352;2023-08-07T02:20:18;94429.59;;;19.02;64.96
41062;BME280;26812;42.662;23.352;2023-08-07T02:22:44;94440.69;;;19.30;63.71
41062;BME280;26812;42.662;23.352;2023-08-07T02:25:09;94449.94;;;19.15;64.59
41062;BME280;26812;42.662;23.352;2023-08-07T02:27:34;94447.34;;;19.40;63.57
41062;BME280;26812;42.662;23.352;2023-08-07T02:30:00;94443.84;;;19.43;63.35
41062;BME280;26812;42.662;23.352;2023-08-07T02:32:27;94452.00;;;19.36;63.85
41062;BME280;26812;42.662;23.352;2023-08-07T02:34:52;94452.78;;;19.33;63.95
41062;BME280;26812;42.662;23.352;2023-08-07T02:37:17;94451.94;;;19.21;64.21
41062;BME280;26812;42.662;23.352;2023-08-07T02:39:43;94445.00;;;19.42;63.54
41062;BME280;26812;42.662;23.352;2023-08-07T02:42:09;94456.72;;;19.42;63.44
41062;BME280;26812;42.662;23.352;2023-08-07T02:44:34;94438.63;;;19.09;64.68
41062;BME280;26812;42.662;23.352;2023-08-07T02:47:00;94451.75;;;18.93;65.62
41062;BME280;26812;42.662;23.352;2023-08-07T02:49:25;94447.25;;;19.22;64.02
41062;BME280;26812;42.662;23.352;2023-08-07T02:51:50;94443.63;;;19.00;64.83
41062;BME280;26812;42.662;23.352;2023-08-07T02:54:16;94462.38;;;19.05;64.43
41062;BME280;26812;42.662;23.352;2023-08-07T02:56:41;94463.56;;;19.08;64.07
41062;BME280;26812;42.662;23.352;2023-08-07T02:59:07;94453.72;;;18.92;64.80
41062;BME280;26812;42.662;23.352;2023-08-07T03:01:32;94447.09;;;18.93;64.55
41062;BME280;26812;42.662;23.352;2023-08-07T03:03:58;94465.91;;;19.06;64.68
41062;BME280;26812;42.662;23.352;2023-08-07T03:06:23;94466.72;;;19.13;64.04
41062;BME280;26812;42.662;23.352;2023-08-07T03:08:49;94469.03;;;19.11;64.19
41062;BME280;26812;42.662;23.352;2023-08-07T03:11:14;94459.94;;;18.93;64.72
41062;BME280;26812;42.662;23.352;2023-08-07T03:13:39;94469.06;;;19.15;64.25
41062;BME280;26812;42.662;23.352;2023-08-07T03:16:11;94467.75;;;18.91;64.79
41062;BME280;26812;42.662;23.352;2023-08-07T03:18:37;94479.16;;;19.04;64.97
41062;BME280;26812;42.662;23.352;2023-08-07T03:21:02;94478.19;;;18.78;65.82
41062;BME280;26812;42.662;23.352;2023-08-07T03:23:28;94489.91;;;18.82;65.32
41062;BME280;26812;42.662;23.352;2023-08-07T03:26:08;94491.75;;;18.68;66.22
41062;BME280;26812;42.662;23.352;2023-08-07T03:28:34;94498.13;;;18.86;65.47
41062;BME280;26812;42.662;23.352;2023-08-07T03:31:00;94496.31;;;19.04;64.65
41062;BME280;26812;42.662;23.352;2023-08-07T03:33:26;94494.59;;;18.82;65.51
41062;BME280;26812;42.662;23.352;2023-08-07T03:35:51;94501.34;;;18.99;65.15
41062;BME280;26812;42.662;23.352;2023-08-07T03:38:17;94493.69;;;18.67;65.59
41062;BME280;26812;42.662;23.352;2023-08-07T03:40:42;94501.38;;;19.02;65.16
41062;BME280;26812;42.662;23.352;2023-08-07T03:43:07;94510.41;;;19.17;64.27
41062;BME280;26812;42.662;23.352;2023-08-07T03:45:33;94515.13;;;19.20;64.40
41062;BME280;26812;42.662;23.352;2023-08-07T03:47:58;94520.69;;;19.38;63.12
41062;BME280;26812;42.662;23.352;2023-08-07T03:50:23;94523.66;;;19.15;63.65
41062;BME280;26812;42.662;23.352;2023-08-07T03:52:49;94515.88;;;19.17;63.54
41062;BME280;26812;42.662;23.352;2023-08-07T03:55:14;94508.94;;;19.30;62.88
41062;BME280;26812;42.662;23.352;2023-08-07T03:57:39;94518.19;;;19.11;63.96
41062;BME280;26812;42.662;23.352;2023-08-07T04:00:05;94518.16;;;19.08;63.99
41062;BME280;26812;42.662;23.352;2023-08-07T04:02:31;94487.72;;;19.02;63.54
41062;BME280;26812;42.662;23.352;2023-08-07T04:04:56;94509.28;;;19.21;61.91
41062;BME280;26812;42.662;23.352;2023-08-07T04:07:22;94521.38;;;19.24;62.20
41062;BME280;26812;42.662;23.352;2023-08-07T04:09:47;94535.44;;;19.26;62.45
41062;BME280;26812;42.662;23.352;2023-08-07T04:12:13;94522.03;;;19.03;63.97
41062;BME280;26812;42.662;23.352;2023-08-07T04:14:38;94526.75;;;19.06;63.30
41062;BME280;26812;42.662;23.352;2023-08-07T04:17:04;94544.84;;;19.32;62.23
41062;BME280;26812;42.662;23.352;2023-08-07T04:19:29;94542.00;;;19.14;61.71
41062;BME280;26812;42.662;23.352;2023-08-07T04:21:54;94552.28;;;18.80;64.00
41062;BME280;26812;42.662;23.352;2023-08-07T04:24:20;94543.03;;;18.96;63.68
41062;BME280;26812;42.662;23.352;2023-08-07T04:26:45;94551.28;;;19.03;63.56
41062;BME280;26812;42.662;23.352;2023-08-07T04:29:10;94556.50;;;19.26;63.03
41062;BME280;26812;42.662;23.352;2023-08-07T04:31:36;94543.88;;;19.00;63.17
41062;BME280;26812;42.662;23.352;2023-08-07T04:34:01;94558.94;;;19.38;62.61
41062;BME280;26812;42.662;23.352;2023-08-07T04:36:27;94566.06;;;19.53;61.63
41062;BME280;26812;42.662;23.352;2023-08-07T04:38:52;94561.72;;;19.48;61.10
41062;BME280;26812;42.662;23.352;2023-08-07T04:41:17;94555.75;;;19.29;62.23
41062;BME280;26812;42.662;23.352;2023-08-07T04:43:43;94560.06;;;19.30;62.08
41062;BME280;26812;42.662;23.352;2023-08-07T04:46:11;94562.72;;;19.22;62.75
41062;BME280;26812;42.662;23.352;2023-08-07T04:48:37;94569.66;;;19.64;61.55
41062;BME280;26812;42.662;23.352;2023-08-07T04:51:03;94562.31;;;19.86;60.16
41062;BME280;26812;42.662;23.352;2023-08-07T04:53:28;94570.47;;;19.75;60.50
41062;BME280;26812;42.662;23.352;2023-08-07T04:55:56;94549.03;;;19.77;61.44
41062;BME280;26812;42.662;23.352;2023-08-07T04:58:21;94566.31;;;20.06;60.04
41062;BME280;26812;42.662;23.352;2023-08-07T05:00:46;94557.78;;;20.22;59.01
41062;BME280;26812;42.662;23.352;2023-08-07T05:03:12;94560.94;;;20.31;58.81
41062;BME280;26812;42.662;23.352;2023-08-07T05:05:38;94559.34;;;20.23;58.87
41062;BME280;26812;42.662;23.352;2023-08-07T05:08:03;94561.72;;;20.35;58.29
41062;BME280;26812;42.662;23.352;2023-08-07T05:10:29;94514.81;;;20.23;57.13
41062;BME280;26812;42.662;23.352;2023-08-07T05:12:54;94557.06;;;20.43;57.70
41062;BME280;26812;42.662;23.352;2023-08-07T05:15:24;94559.41;;;20.44;57.46
41062;BME280;26812;42.662;23.352;2023-08-07T05:17:50;94546.91;;;20.40;57.55
41062;BME280;26812;42.662;23.352;2023-08-07T05:20:16;94547.72;;;20.58;57.45
41062;BME280;26812;42.662;23.352;2023-08-07T05:22:42;94538.75;;;20.58;56.83
41062;BME280;26812;42.662;23.352;2023-08-07T05:25:08;94545.72;;;20.41;58.13
41062;BME280;26812;42.662;23.352;2023-08-07T05:27:34;94533.25;;;20.54;57.51
41062;BME280;26812;42.662;23.352;2023-08-07T05:30:00;94540.31;;;20.66;56.40
41062;BME280;26812;42.662;23.352;2023-08-07T05:32:26;94543.44;;;20.71;56.75
41062;BME280;26812;42.662;23.352;2023-08-07T05:34:51;94551.59;;;20.50;56.91
41062;BME280;26812;42.662;23.352;2023-08-07T05:37:16;94521.53;;;20.71;56.55
41062;BME280;26812;42.662;23.352;2023-08-07T05:39:42;94552.81;;;21.02;55.52
41062;BME280;26812;42.662;23.352;2023-08-07T05:42:07;94547.75;;;21.19;54.08
41062;BME280;26812;42.662;23.352;2023-08-07T05:44:34;94550.09;;;20.92;55.35
41062;BME280;26812;42.662;23.352;2023-08-07T05:47:00;94550.06;;;20.70;55.22
41062;BME280;26812;42.662;23.352;2023-08-07T05:49:25;94552.03;;;20.77;55.43
41062;BME280;26812;42.662;23.352;2023-08-07T05:51:50;94555.19;;;20.97;55.07
41062;BME280;26812;42.662;23.352;2023-08-07T05:54:16;94560.66;;;21.25;54.88
41062;BME280;26812;42.662;23.352;2023-08-07T05:56:41;94542.22;;;21.51;53.66
41062;BME280;26812;42.662;23.352;2023-08-07T05:59:07;94541.88;;;21.17;53.79
41062;BME280;26812;42.662;23.352;2023-08-07T06:01:32;94549.31;;;21.16;53.88
41062;BME280;26812;42.662;23.352;2023-08-07T06:03:57;94558.69;;;21.51;53.38
41062;BME280;26812;42.662;23.352;2023-08-07T06:06:24;94556.16;;;22.02;51.34
41062;BME280;26812;42.662;23.352;2023-08-07T06:08:50;94552.69;;;21.91;51.18
41062;BME280;26812;42.662;23.352;2023-08-07T06:11:16;94550.38;;;21.72;51.20
41062;BME280;26812;42.662;23.352;2023-08-07T06:13:41;94556.31;;;21.53;52.47
41062;BME280;26812;42.662;23.352;2023-08-07T06:16:06;94539.84;;;21.60;52.18
41062;BME280;26812;42.662;23.352;2023-08-07T06:18:32;94551.81;;;22.16;51.22
41062;BME280;26812;42.662;23.352;2023-08-07T06:20:59;94546.66;;;22.28;50.69
41062;BME280;26812;42.662;23.352;2023-08-07T06:23:24;94545.75;;;22.49;49.92
41062;BME280;26812;42.662;23.352;2023-08-07T06:25:50;94540.78;;;22.26;50.37
41062;BME280;26812;42.662;23.352;2023-08-07T06:28:15;94540.06;;;22.15;50.26
41062;BME280;26812;42.662;23.352;2023-08-07T06:30:41;94520.16;;;22.04;51.03
41062;BME280;26812;42.662;23.352;2023-08-07T06:33:06;94532.19;;;22.21;50.76
41062;BME280;26812;42.662;23.352;2023-08-07T06:35:37;94533.78;;;22.18;50.49
41062;BME280;26812;42.662;23.352;2023-08-07T06:38:02;94537.19;;;22.40;49.81
41062;BME280;26812;42.662;23.352;2023-08-07T06:40:28;94534.44;;;22.44;49.06
41062;BME280;26812;42.662;23.352;2023-08-07T06:42:53;94534.47;;;22.96;46.27
41062;BME280;26812;42.662;23.352;2023-08-07T06:45:19;94524.47;;;23.19;45.14
41062;BME280;26812;42.662;23.352;2023-08-07T06:47:44;94542.59;;;23.51;43.59
41062;BME280;26812;42.662;23.352;2023-08-07T06:50:10;94535.78;;;23.29;43.61
41062;BME280;26812;42.662;23.352;2023-08-07T06:52:35;94547.78;;;23.01;43.43
41062;BME280;26812;42.662;23.352;2023-08-07T06:55:01;94550.28;;;23.29;43.77
41062;BME280;26812;42.662;23.352;2023-08-07T06:57:27;94545.81;;;23.46;43.08
41062;BME280;26812;42.662;23.352;2023-08-07T06:59:52;94539.38;;;23.63;42.97
41062;BME280;26812;42.662;23.352;2023-08-07T07:02:17;94544.13;;;23.97;41.80
41062;BME280;26812;42.662;23.352;2023-08-07T07:04:43;94536.06;;;23.79;42.22
41062;BME280;26812;42.662;23.352;2023-08-07T07:07:08;94532.13;;;23.80;41.22
41062;BME280;26812;42.662;23.352;2023-08-07T07:09:33;94535.22;;;23.44;42.19
41062;BME280;26812;42.662;23.352;2023-08-07T07:11:59;94537.81;;;23.62;42.41
41062;BME280;26812;42.662;23.352;2023-08-07T07:14:24;94542.22;;;23.90;41.39
41062;BME280;26812;42.662;23.352;2023-08-07T07:16:50;94536.09;;;24.09;40.60
41062;BME280;26812;42.662;23.352;2023-08-07T07:19:15;94536.69;;;24.28;39.74
41062;BME280;26812;42.662;23.352;2023-08-07T07:21:41;94527.28;;;24.22;39.77
41062;BME280;26812;42.662;23.352;2023-08-07T07:24:07;94543.28;;;24.34;39.61
41062;BME280;26812;42.662;23.352;2023-08-07T07:26:32;94540.22;;;24.28;39.82
41062;BME280;26812;42.662;23.352;2023-08-07T07:28:57;94526.63;;;24.10;40.33
41062;BME280;26812;42.662;23.352;2023-08-07T07:31:23;94518.06;;;24.05;40.89
41062;BME280;26812;42.662;23.352;2023-08-07T07:33:48;94518.44;;;24.07;40.66
41062;BME280;26812;42.662;23.352;2023-08-07T07:36:17;94528.75;;;24.60;40.32
41062;BME280;26812;42.662;23.352;2023-08-07T07:38:45;94511.63;;;24.49;39.95
41062;BME280;26812;42.662;23.352;2023-08-07T07:41:11;94540.06;;;24.66;39.55
41062;BME280;26812;42.662;23.352;2023-08-07T07:43:37;94548.44;;;24.86;39.20
41062;BME280;26812;42.662;23.352;2023-08-07T07:46:03;94547.91;;;24.94;38.78
41062;BME280;26812;42.662;23.352;2023-08-07T07:48:28;94528.41;;;25.08;38.75
41062;BME280;26812;42.662;23.352;2023-08-07T07:51:03;94527.41;;;24.99;39.39
41062;BME280;26812;42.662;23.352;2023-08-07T07:53:30;94533.72;;;24.69;39.67
41062;BME280;26812;42.662;23.352;2023-08-07T07:55:55;94535.53;;;24.79;39.51
41062;BME280;26812;42.662;23.352;2023-08-07T07:58:21;94532.47;;;25.00;39.30
41062;BME280;26812;42.662;23.352;2023-08-07T08:00:47;94527.69;;;25.04;38.74
41062;BME280;26812;42.662;23.352;2023-08-07T08:03:13;94536.31;;;25.06;38.96
41062;BME280;26812;42.662;23.352;2023-08-07T08:05:39;94529.88;;;25.17;38.37
41062;BME280;26812;42.662;23.352;2023-08-07T08:08:06;94511.44;;;25.10;38.23
41062;BME280;26812;42.662;23.352;2023-08-07T08:10:35;94529.88;;;25.17;38.78
41062;BME280;26812;42.662;23.352;2023-08-07T08:13:01;94528.19;;;25.23;38.42
41062;BME280;26812;42.662;23.352;2023-08-07T08:15:28;94529.25;;;24.78;39.15
41062;BME280;26812;42.662;23.352;2023-08-07T08:17:53;94531.50;;;24.87;39.38
41062;BME280;26812;42.662;23.352;2023-08-07T08:20:18;94527.75;;;24.74;39.95
41062;BME280;26812;42.662;23.352;2023-08-07T08:22:45;94530.19;;;24.95;39.83
41062;BME280;26812;42.662;23.352;2023-08-07T08:25:10;94519.06;;;25.26;38.66
41062;BME280;26812;42.662;23.352;2023-08-07T08:27:37;94527.88;;;25.84;37.24
41062;BME280;26812;42.662;23.352;2023-08-07T08:30:03;94517.06;;;25.93;36.57
41062;BME280;26812;42.662;23.352;2023-08-07T08:32:29;94515.88;;;25.74;36.70
41062;BME280;26812;42.662;23.352;2023-08-07T08:34:54;94501.34;;;25.70;36.14
41062;BME280;26812;42.662;23.352;2023-08-07T08:37:20;94508.66;;;25.57;36.37
41062;BME280;26812;42.662;23.352;2023-08-07T08:39:46;94511.47;;;25.77;35.29
41062;BME280;26812;42.662;23.352;2023-08-07T08:42:12;94512.47;;;25.86;35.07
41062;BME280;26812;42.662;23.352;2023-08-07T08:44:51;94517.78;;;25.54;35.23
41062;BME280;26812;42.662;23.352;2023-08-07T08:47:17;94510.34;;;25.51;36.45
41062;BME280;26812;42.662;23.352;2023-08-07T08:49:46;94520.84;;;25.59;36.40
41062;BME280;26812;42.662;23.352;2023-08-07T08:52:13;94515.78;;;25.78;35.72
41062;BME280;26812;42.662;23.352;2023-08-07T08:54:39;94506.94;;;25.86;35.77
41062;BME280;26812;42.662;23.352;2023-08-07T08:57:06;94508.22;;;25.82;35.63
41062;BME280;26812;42.662;23.352;2023-08-07T08:59:39;94499.63;;;26.16;34.31
41062;BME280;26812;42.662;23.352;2023-08-07T09:02:06;94493.28;;;25.99;35.53
41062;BME280;26812;42.662;23.352;2023-08-07T09:04:32;94491.78;;;26.14;35.36
41062;BME280;26812;42.662;23.352;2023-08-07T09:06:57;94485.88;;;26.32;34.65
41062;BME280;26812;42.662;23.352;2023-08-07T09:09:23;94495.44;;;26.27;35.53
41062;BME280;26812;42.662;23.352;2023-08-07T09:11:50;94499.59;;;26.55;34.60
41062;BME280;26812;42.662;23.352;2023-08-07T09:14:17;94496.31;;;26.60;34.43
41062;BME280;26812;42.662;23.352;2023-08-07T09:16:47;94503.19;;;26.52;34.76
41062;BME280;26812;42.662;23.352;2023-08-07T09:19:13;94495.09;;;26.45;33.83
41062;BME280;26812;42.662;23.352;2023-08-07T09:21:39;94490.69;;;26.28;34.48
41062;BME280;26812;42.662;23.352;2023-08-07T09:24:04;94476.97;;;26.24;34.71
41062;BME280;26812;42.662;23.352;2023-08-07T09:26:32;94492.50;;;26.54;34.65
41062;BME280;26812;42.662;23.352;2023-08-07T09:28:58;94485.00;;;26.55;33.76
41062;BME280;26812;42.662;23.352;2023-08-07T09:31:24;94477.13;;;26.53;34.44
41062;BME280;26812;42.662;23.352;2023-08-07T09:34:01;94478.97;;;26.76;34.85
41062;BME280;26812;42.662;23.352;2023-08-07T09:36:29;94462.91;;;26.71;33.80
41062;BME280;26812;42.662;23.352;2023-08-07T09:38:55;94465.22;;;26.89;33.94
41062;BME280;26812;42.662;23.352;2023-08-07T09:41:21;94477.59;;;26.84;33.96
41062;BME280;26812;42.662;23.352;2023-08-07T09:43:46;94472.06;;;26.84;33.73
41062;BME280;26812;42.662;23.352;2023-08-07T09:46:12;94473.97;;;26.87;33.92
41062;BME280;26812;42.662;23.352;2023-08-07T09:48:42;94458.44;;;27.10;33.81
41062;BME280;26812;42.662;23.352;2023-08-07T09:51:08;94472.78;;;27.05;34.19
41062;BME280;26812;42.662;23.352;2023-08-07T09:53:34;94460.50;;;27.06;33.99
41062;BME280;26812;42.662;23.352;2023-08-07T09:56:00;94471.09;;;27.23;33.93
41062;BME280;26812;42.662;23.352;2023-08-07T09:58:26;94455.03;;;27.18;33.33
41062;BME280;26812;42.662;23.352;2023-08-07T10:00:52;94464.09;;;27.35;33.23
41062;BME280;26812;42.662;23.352;2023-08-07T10:03:24;94467.94;;;27.25;33.96
41062;BME280;26812;42.662;23.352;2023-08-07T10:05:50;94462.69;;;27.43;33.83
41062;BME280;26812;42.662;23.352;2023-08-07T10:08:16;94458.38;;;27.42;33.25
41062;BME280;26812;42.662;23.352;2023-08-07T10:10:42;94459.84;;;27.76;32.91
41062;BME280;26812;42.662;23.352;2023-08-07T10:13:09;94463.00;;;27.91;32.96
41062;BME280;26812;42.662;23.352;2023-08-07T10:15:38;94464.78;;;27.39;33.42
41062;BME280;26812;42.662;23.352;2023-08-07T10:18:05;94469.25;;;27.49;33.33
41062;BME280;26812;42.662;23.352;2023-08-07T10:20:32;94467.41;;;27.30;33.77
41062;BME280;26812;42.662;23.352;2023-08-07T10:23:07;94473.06;;;27.39;33.54
41062;BME280;26812;42.662;23.352;2023-08-07T10:25:43;94465.34;;;27.63;33.69
41062;BME280;26812;42.662;23.352;2023-08-07T10:28:13;94460.53;;;27.80;33.22
41062;BME280;26812;42.662;23.352;2023-08-07T10:30:41;94431.28;;;27.50;32.77
41062;BME280;26812;42.662;23.352;2023-08-07T10:33:07;94464.34;;;27.86;32.97
41062;BME280;26812;42.662;23.352;2023-08-07T10:35:34;94480.88;;;27.73;32.93
41062;BME280;26812;42.662;23.352;2023-08-07T10:38:10;94448.84;;;27.89;32.93
41062;BME280;26812;42.662;23.352;2023-08-07T10:41:01;94458.63;;;28.19;32.72
41062;BME280;26812;42.662;23.352;2023-08-07T10:43:27;94459.34;;;28.48;31.97
41062;BME280;26812;42.662;23.352;2023-08-07T10:46:16;94440.38;;;28.34;31.37
41062;BME280;26812;42.662;23.352;2023-08-07T10:48:47;94453.69;;;28.52;31.86
41062;BME280;26812;42.662;23.352;2023-08-07T10:51:16;94447.47;;;28.35;31.91
41062;BME280;26812;42.662;23.352;2023-08-07T10:53:47;94452.69;;;28.58;31.58
41062;BME280;26812;42.662;23.352;2023-08-07T10:56:33;94451.34;;;28.75;31.15
41062;BME280;26812;42.662;23.352;2023-08-07T10:59:10;94444.00;;;29.07;31.05
41062;BME280;26812;42.662;23.352;2023-08-07T11:04:12;94435.50;;;28.89;30.67
41062;BME280;26812;42.662;23.352;2023-08-07T11:06:39;94433.59;;;29.11;31.14
41062;BME280;26812;42.662;23.352;2023-08-07T11:09:09;94436.50;;;28.95;31.27
41062;BME280;26812;42.662;23.352;2023-08-07T11:11:42;94431.78;;;29.17;30.83
41062;BME280;26812;42.662;23.352;2023-08-07T11:14:12;94423.25;;;29.12;30.47
41062;BME280;26812;42.662;23.352;2023-08-07T11:16:38;94406.78;;;28.95;30.76
41062;BME280;26812;42.662;23.352;2023-08-07T11:19:04;94405.69;;;28.67;30.66
41062;BME280;26812;42.662;23.352;2023-08-07T11:21:33;94403.75;;;29.02;30.73
41062;BME280;26812;42.662;23.352;2023-08-07T11:24:02;94402.91;;;28.93;30.67
41062;BME280;26812;42.662;23.352;2023-08-07T11:26:28;94402.00;;;28.70;31.07
41062;BME280;26812;42.662;23.352;2023-08-07T11:28:55;94401.31;;;29.04;30.57
41062;BME280;26812;42.662;23.352;2023-08-07T11:31:21;94403.28;;;29.17;29.87
41062;BME280;26812;42.662;23.352;2023-08-07T11:33:56;94388.38;;;28.76;30.57
41062;BME280;26812;42.662;23.352;2023-08-07T11:36:23;94393.69;;;28.96;30.75
41062;BME280;26812;42.662;23.352;2023-08-07T11:38:49;94399.34;;;28.92;30.71
41062;BME280;26812;42.662;23.352;2023-08-07T11:41:16;94393.84;;;29.14;29.97
41062;BME280;26812;42.662;23.352;2023-08-07T11:43:42;94393.09;;;29.01;30.57
41062;BME280;26812;42.662;23.352;2023-08-07T11:46:10;94396.50;;;28.58;31.12
41062;BME280;26812;42.662;23.352;2023-08-07T11:48:37;94408.53;;;28.76;31.57
41062;BME280;26812;42.662;23.352;2023-08-07T11:51:04;94410.63;;;29.11;30.83
41062;BME280;26812;42.662;23.352;2023-08-07T11:53:38;94399.19;;;29.65;30.00
41062;BME280;26812;42.662;23.352;2023-08-07T11:56:06;94401.28;;;29.74;29.54
41062;BME280;26812;42.662;23.352;2023-08-07T11:58:37;94402.38;;;29.76;29.17
41062;BME280;26812;42.662;23.352;2023-08-07T12:01:13;94402.84;;;29.75;28.81
41062;BME280;26812;42.662;23.352;2023-08-07T12:03:43;94392.50;;;29.75;29.55
41062;BME280;26812;42.662;23.352;2023-08-07T12:06:09;94403.84;;;29.90;29.27
41062;BME280;26812;42.662;23.352;2023-08-07T12:08:41;94392.88;;;29.86;29.15
41062;BME280;26812;42.662;23.352;2023-08-07T12:11:11;94389.03;;;29.93;29.30
41062;BME280;26812;42.662;23.352;2023-08-07T12:13:41;94375.72;;;29.79;29.15
41062;BME280;26812;42.662;23.352;2023-08-07T12:16:07;94364.78;;;29.84;28.91
41062;BME280;26812;42.662;23.352;2023-08-07T12:18:44;94369.97;;;29.73;29.40
41062;BME280;26812;42.662;23.352;2023-08-07T12:21:10;94371.56;;;29.83;29.00
41062;BME280;26812;42.662;23.352;2023-08-07T12:23:36;94384.34;;;29.59;29.73
41062;BME280;26812;42.662;23.352;2023-08-07T12:26:03;94383.97;;;29.48;29.97
41062;BME280;26812;42.662;23.352;2023-08-07T12:28:31;94375.41;;;29.55;29.93
41062;BME280;26812;42.662;23.352;2023-08-07T12:30:57;94377.53;;;29.73;30.03
41062;BME280;26812;42.662;23.352;2023-08-07T12:33:22;94373.34;;;29.99;29.62
41062;BME280;26812;42.662;23.352;2023-08-07T12:35:47;94344.44;;;29.87;29.29
41062;BME280;26812;42.662;23.352;2023-08-07T12:38:13;94355.31;;;29.73;29.86
41062;BME280;26812;42.662;23.352;2023-08-07T12:40:40;94368.94;;;29.58;30.24
41062;BME280;26812;42.662;23.352;2023-08-07T12:43:07;94378.63;;;29.53;30.74
41062;BME280;26812;42.662;23.352;2023-08-07T12:45:32;94385.31;;;29.43;30.84
41062;BME280;26812;42.662;23.352;2023-08-07T12:47:59;94361.88;;;29.22;30.96
41062;BME280;26812;42.662;23.352;2023-08-07T12:50:24;94393.03;;;29.26;31.03
41062;BME280;26812;42.662;23.352;2023-08-07T12:52:50;94375.81;;;29.31;31.69
41062;BME280;26812;42.662;23.352;2023-08-07T12:55:16;94394.38;;;29.22;31.62